Startpagina
METAR-TAF:

METAR-TAF

Vliegvelden :

Jekaterinenburg, Rusland

Luchthaven Koltsovo

breedte: 56-50N, lengte: 060-38E, hoogte: 237 m

Actueel weer

Dit bericht is 23 minuten geleden gemaakt, om 01:30 UTC
Wind 6 kt uit het noordwesten
Temperatuur 2°C
Vochtigheid 69%
Druk 1008 hPa
Zicht 10 km of meer
Verspreide wolken op 4400 ft

METAR: USSS 290130Z 31003MPS 9999 SCT044 02/M03 Q1008 R26R/010060 NOSIG RMK QFE735/0980

Tijdstip: 06:53 (01:53 UTC)

Verwachting

Dit bericht is 2 uur en het 53 minuten geleden gemaakt, om 23:00 UTC
Verwachting geldig van 29 om 00 UTC tot 29 om 24 UTC
Wind 12 kt uit het noordwesten
Zicht 10 km of meer
Verspreide wolken op 1100 ft
Verspreide wolken op 2000 ft, Cumulonimbus.

TAF: USSS 282300Z 2900/2924 32006MPS 9999 SCT011 SCT020CB

Waarnemingen en weersverwachtingen van meer dan 4000 vliegvelden (METAR en TAF).

De beschikbare stations zijn de gele en rode punten op de kaart.

Ga met uw muis naar het station om de naam te zien.

Klik dan om waarnemingen en weersverwachtingen te zien.

kaart wijzigen: klik op de groene knoppen met een zwart kruis om in te zoomen, op de groene knop met een streepje om uit te zoomen of op de groene pijlen voor aangrenzende kaarten.


METAR-TAF: